Oreana, Nevada
Current Conditions -  °F | °C
As of 4:53 AM on Tuesday 21 Oct 2014 (Local Time) from KLOL Reporting Station
Clear Clear  
Wind Chill: 37°   Ceiling: Unl
Heat Index: 43°   Visibility: 10mi
Dew Point: 27°   Wind: 10mph
Humidity: 53%   Direction: 250°WSW
Pressure: 30.04"   Gusts: NA
Location:  40.3545°N, 118.628°W
Report Text: KLOL 211153Z AUTO 25009KT 10SM CLR 06/M03 A3004 RMK AO2 SLP152 T00611028 10133 20056 53013
Loading
Personal Weather Stations






























Interactive Weather Map
Tropical Storm Tracking
New forecast layout! Learn more

10-Day Weather Forecast

Advertisements
Track Severe Weather on mobile